Etusivu
METAR-TAF:

METAR-TAF

Lentoasemat :

Lafayette Regional Airport

Lafayette, Louisiana, Yhdysvallat

Leveyspiiri: 30-12-08N, Pituuspiiri: 091-59-35W, korkeus merenpinnasta: 12 m

Tämänhetkinen sää

Tämä raportti tehtiin 1 tunti ja 1 minuuttia sitten, kello 11.53 UTC
Tuuli 5 kn pohjoisesta/koillisesta
Lämpötila 14°C
Kosteus 77%
Ilmanpaine 1008 hPa
Näkyvyys: 16.1 km
selkeää

METAR: KLFT 111153Z 02005KT 10SM CLR 14/10 A2977 RMK AO2 SLP082 70001 T01390100 10206 20139 53004

Aika: 07:54 (12:54 UTC)

Sääennuste

Tämä raportti tehtiin 1 tunti ja 33 minuuttia sitten, kello 11.21 UTC
Ennuste voimassa 11. päivästä klo 11 UTC - 12. päivään klo 06 UTC
Tuuli 8 kn pohjoisesta/koillisesta
Näkyvyys: 10 km
selkeää
From 12. päivästä klo 0000 UTC
Tuuli 3 kn eri suunnista
Näkyvyys: 10 km
selkeää

TAF: KLFT 111121Z 1111/1206 02008KT P6SM SKC FM120000 VRB03KT P6SM SKC

Säähavainnot ja -ennusteet yli 4000 lentoasemalta (METAR- ja TAF-raportit).

Käytössä olevat sääasemat on merkitty karttaan keltaisilla ja punaisilla pisteillä.

Aseta hiiri pisteen päälle nähdäksesi sääaseman nimen.

Klikkaa sitten nähdäksesi säähavainnot ja -ennusteet.

Kartan vaihtaminen: klikkaa mustalla rastilla varustettuja vihreitä pisteitä, niin voit zoomata sisään; viivalla varustettua vihreää pistettä, niin voit zoomata ulos tai vihreitä nuolia, niin pääset viereisille kartoille.


METAR-TAF: